createdAt,value
2022-08-07T00:00:06.148Z,984.20
2022-08-07T00:01:12.480Z,984.18
2022-08-07T00:02:39.984Z,984.18
2022-08-07T00:03:05.872Z,984.16
2022-08-07T00:04:26.837Z,984.17
2022-08-07T00:05:06.039Z,984.19
2022-08-07T00:06:05.664Z,984.18
2022-08-07T00:07:27.365Z,984.20
2022-08-07T00:08:05.515Z,984.22
2022-08-07T00:09:35.654Z,984.19
2022-08-07T00:10:25.460Z,984.24
2022-08-07T00:11:06.496Z,984.18
2022-08-07T00:12:26.187Z,984.23
2022-08-07T00:13:24.099Z,984.20
2022-08-07T00:14:30.512Z,984.19
2022-08-07T00:15:04.961Z,984.20
2022-08-07T00:16:05.026Z,984.22
2022-08-07T00:17:25.874Z,984.22
2022-08-07T00:18:04.722Z,984.23
2022-08-07T00:19:26.034Z,984.22
2022-08-07T00:20:04.571Z,984.28
2022-08-07T00:21:07.947Z,984.31
2022-08-07T00:22:35.542Z,984.28
2022-08-07T00:23:04.421Z,984.26
2022-08-07T00:24:25.259Z,984.26
2022-08-07T00:25:04.209Z,984.25
2022-08-07T00:26:12.819Z,984.26
2022-08-07T00:27:25.086Z,984.26
2022-08-07T00:28:03.987Z,984.28
2022-08-07T00:29:24.875Z,984.27
2022-08-07T00:30:03.879Z,984.26
2022-08-07T00:31:05.909Z,984.27
2022-08-07T00:32:24.624Z,984.22
2022-08-07T00:33:03.598Z,984.26
2022-08-07T00:34:24.483Z,984.27
2022-08-07T00:35:03.418Z,984.23
2022-08-07T00:36:03.334Z,984.28
2022-08-07T00:37:24.236Z,984.24
2022-08-07T00:38:03.195Z,984.28
2022-08-07T00:39:24.108Z,984.27
2022-08-07T00:40:03.038Z,984.29
2022-08-07T00:41:02.951Z,984.29
2022-08-07T00:42:28.942Z,984.29
2022-08-07T00:43:02.814Z,984.27
2022-08-07T00:44:23.711Z,984.24
2022-08-07T00:45:02.641Z,984.29
2022-08-07T00:46:02.557Z,984.28
2022-08-07T00:48:08.930Z,984.29
2022-08-07T00:48:09.083Z,984.25
2022-08-07T00:49:24.985Z,984.27
2022-08-07T00:50:19.536Z,984.26
2022-08-07T00:51:02.191Z,984.26
2022-08-07T00:52:23.088Z,984.27
2022-08-07T00:53:02.031Z,984.28
2022-08-07T00:54:22.922Z,984.27
2022-08-07T00:55:04.646Z,984.25
2022-08-07T00:56:02.600Z,984.30
2022-08-07T00:57:22.720Z,984.29
2022-08-07T00:58:01.650Z,984.29
2022-08-07T00:59:35.115Z,984.26
2022-08-07T01:00:01.485Z,984.26
2022-08-07T01:01:01.480Z,984.26
2022-08-07T01:02:28.903Z,984.25
2022-08-07T01:03:01.259Z,984.29
2022-08-07T01:04:24.990Z,984.26
2022-08-07T01:05:01.095Z,984.24
2022-08-07T01:06:01.023Z,984.28
2022-08-07T01:07:21.941Z,984.27
2022-08-07T01:08:00.860Z,984.30
2022-08-07T01:09:35.631Z,984.30
2022-08-07T01:10:06.690Z,984.30
2022-08-07T01:11:00.678Z,984.29
2022-08-07T01:12:30.139Z,984.27
2022-08-07T01:13:00.474Z,984.30
2022-08-07T01:14:28.262Z,984.24
2022-08-07T01:15:01.778Z,984.26
2022-08-07T01:16:01.081Z,984.21
2022-08-07T01:17:21.170Z,984.26
2022-08-07T01:18:00.095Z,984.24
2022-08-07T01:19:20.992Z,984.25
2022-08-07T01:19:59.946Z,984.22
2022-08-07T01:20:59.919Z,984.17
2022-08-07T01:22:22.936Z,984.17
2022-08-07T01:23:11.997Z,984.18
2022-08-07T01:24:21.586Z,984.17
2022-08-07T01:24:59.540Z,984.16
2022-08-07T01:25:59.458Z,984.17
2022-08-07T01:27:20.385Z,984.19
2022-08-07T01:27:59.583Z,984.15
2022-08-07T01:29:20.234Z,984.15
2022-08-07T01:29:59.168Z,984.17
2022-08-07T01:30:59.085Z,984.17
2022-08-07T01:32:19.967Z,984.19
2022-08-07T01:32:58.927Z,984.20
2022-08-07T01:34:19.844Z,984.19
2022-08-07T01:34:58.773Z,984.18
2022-08-07T01:36:06.311Z,984.20
2022-08-07T01:37:20.116Z,984.21
2022-08-07T01:37:58.548Z,984.19
2022-08-07T01:39:19.466Z,984.18
2022-08-07T01:39:58.439Z,984.20
2022-08-07T01:40:58.303Z,984.22
2022-08-07T01:42:37.605Z,984.22
2022-08-07T01:42:59.026Z,984.22
2022-08-07T01:44:19.055Z,984.27
2022-08-07T01:44:58.010Z,984.27
2022-08-07T01:45:58.670Z,984.28
2022-08-07T01:48:20.696Z,984.24
2022-08-07T01:48:29.654Z,984.23
2022-08-07T01:49:18.719Z,984.21
2022-08-07T01:49:57.585Z,984.21
2022-08-07T01:50:57.542Z,984.21
2022-08-07T01:52:18.415Z,984.21
2022-08-07T01:52:57.365Z,984.23
2022-08-07T01:54:32.650Z,984.18
2022-08-07T01:54:58.952Z,984.19
2022-08-07T01:55:57.122Z,984.17
2022-08-07T01:57:24.632Z,984.15
2022-08-07T01:58:06.083Z,984.14
2022-08-07T01:59:17.893Z,984.13
2022-08-07T01:59:56.834Z,984.13
2022-08-07T02:01:09.228Z,984.16
2022-08-07T02:03:11.314Z,984.12
2022-08-07T02:03:18.554Z,984.09
2022-08-07T02:04:17.595Z,984.11
2022-08-07T02:04:57.414Z,984.08
2022-08-07T02:06:01.042Z,984.10
2022-08-07T02:07:17.255Z,984.10
2022-08-07T02:07:56.184Z,984.09
2022-08-07T02:09:33.904Z,984.02
2022-08-07T02:09:58.730Z,984.03
2022-08-07T02:10:57.961Z,983.97
2022-08-07T02:12:17.846Z,983.99
2022-08-07T02:12:55.822Z,983.98
2022-08-07T02:14:40.172Z,984.01
2022-08-07T02:14:55.660Z,983.99
2022-08-07T02:15:55.562Z,984.01
2022-08-07T02:17:24.901Z,984.02
2022-08-07T02:17:55.411Z,984.02
2022-08-07T02:20:05.058Z,984.01
2022-08-07T02:20:05.311Z,984.04
2022-08-07T02:20:57.353Z,983.95
2022-08-07T02:22:18.471Z,983.96
2022-08-07T02:22:55.337Z,983.91
2022-08-07T02:24:17.697Z,983.96
2022-08-07T02:24:54.866Z,983.93
2022-08-07T02:26:31.905Z,983.96
2022-08-07T02:27:15.693Z,983.94
2022-08-07T02:27:54.627Z,983.97
2022-08-07T02:29:15.539Z,983.96
2022-08-07T02:29:55.109Z,983.97
2022-08-07T02:30:54.419Z,983.93
2022-08-07T02:32:15.310Z,983.92
2022-08-07T02:33:03.895Z,983.91
2022-08-07T02:34:18.023Z,983.96
2022-08-07T02:34:54.093Z,983.96
2022-08-07T02:36:28.564Z,983.92
2022-08-07T02:37:14.933Z,983.97
2022-08-07T02:37:53.849Z,983.95
2022-08-07T02:39:17.382Z,983.89
2022-08-07T02:40:12.117Z,983.92
2022-08-07T02:40:55.948Z,983.88
2022-08-07T02:42:14.948Z,983.86
2022-08-07T02:42:53.483Z,983.85
2022-08-07T02:44:14.377Z,983.86
2022-08-07T02:44:53.306Z,983.83
2022-08-07T02:46:00.982Z,983.86
2022-08-07T02:47:19.584Z,983.84
2022-08-07T02:47:53.080Z,983.86
2022-08-07T02:49:28.842Z,983.87
2022-08-07T02:49:59.060Z,983.87
2022-08-07T02:50:52.839Z,983.88
2022-08-07T02:52:13.735Z,983.86
2022-08-07T02:52:52.689Z,983.89
2022-08-07T02:54:13.613Z,983.88
2022-08-07T02:54:52.529Z,983.88
2022-08-07T02:56:04.137Z,983.90
2022-08-07T02:57:13.501Z,983.85
2022-08-07T02:57:52.299Z,983.85
2022-08-07T02:59:13.200Z,983.85
2022-08-07T03:00:00.993Z,983.82
2022-08-07T03:00:52.137Z,983.84
2022-08-07T03:02:13.002Z,983.84
2022-08-07T03:02:54.667Z,983.84
2022-08-07T03:04:14.018Z,983.83
2022-08-07T03:04:51.743Z,983.82
2022-08-07T03:05:51.653Z,983.80
2022-08-07T03:07:12.582Z,983.77
2022-08-07T03:08:07.000Z,983.77
2022-08-07T03:09:12.439Z,983.77
2022-08-07T03:09:52.638Z,983.76
2022-08-07T03:10:51.290Z,983.80
2022-08-07T03:12:21.609Z,983.74
2022-08-07T03:12:51.904Z,983.78
2022-08-07T03:14:12.021Z,983.80
2022-08-07T03:14:52.441Z,983.78
2022-08-07T03:15:58.330Z,983.76
2022-08-07T03:17:11.791Z,983.74
2022-08-07T03:17:52.829Z,983.77
2022-08-07T03:19:11.625Z,983.74
2022-08-07T03:19:54.596Z,983.74
2022-08-07T03:20:50.494Z,983.71
2022-08-07T03:22:18.821Z,983.73
2022-08-07T03:22:50.545Z,983.74
2022-08-07T03:24:17.444Z,983.69
2022-08-07T03:24:50.186Z,983.72
2022-08-07T03:25:50.815Z,983.71
2022-08-07T03:27:11.003Z,983.68
2022-08-07T03:28:09.075Z,983.68
2022-08-07T03:29:11.284Z,983.68
2022-08-07T03:29:51.265Z,983.68
2022-08-07T03:30:49.702Z,983.67
2022-08-07T03:32:12.976Z,983.67
2022-08-07T03:32:58.564Z,983.69
2022-08-07T03:34:10.448Z,983.68
2022-08-07T03:35:17.138Z,983.69
2022-08-07T03:35:50.102Z,983.67
2022-08-07T03:37:12.316Z,983.67
2022-08-07T03:37:53.536Z,983.70
2022-08-07T03:39:10.087Z,983.67
2022-08-07T03:40:13.452Z,983.67
2022-08-07T03:40:53.810Z,983.66
2022-08-07T03:42:09.814Z,983.68
2022-08-07T03:42:49.364Z,983.66
2022-08-07T03:44:09.665Z,983.68
2022-08-07T03:44:53.660Z,983.67
2022-08-07T03:45:48.835Z,983.66
2022-08-07T03:47:11.082Z,983.68
2022-08-07T03:47:51.387Z,983.70
2022-08-07T03:49:09.266Z,983.71
2022-08-07T03:49:52.318Z,983.68
2022-08-07T03:50:52.149Z,983.71
2022-08-07T03:52:22.340Z,983.69
2022-08-07T03:52:47.986Z,983.76
2022-08-07T03:54:35.335Z,983.72
2022-08-07T03:54:54.210Z,983.73
2022-08-07T03:55:58.027Z,983.70
2022-08-07T03:57:08.649Z,983.75
2022-08-07T03:58:33.315Z,983.72
2022-08-07T03:59:13.311Z,983.76
2022-08-07T04:00:01.690Z,983.71
2022-08-07T04:00:53.319Z,983.75
2022-08-07T04:02:08.245Z,983.73
2022-08-07T04:02:49.453Z,983.76
2022-08-07T04:04:08.069Z,983.77
2022-08-07T04:04:47.036Z,983.76
2022-08-07T04:05:46.960Z,983.78
2022-08-07T04:07:16.680Z,983.81
2022-08-07T04:07:47.624Z,983.83
2022-08-07T04:09:15.310Z,983.83
2022-08-07T04:09:50.439Z,983.80
2022-08-07T04:10:54.090Z,983.84
2022-08-07T04:12:26.570Z,983.82
2022-08-07T04:12:46.409Z,983.83
2022-08-07T04:14:10.700Z,983.82
2022-08-07T04:14:47.837Z,983.87
2022-08-07T04:15:49.018Z,983.88
2022-08-07T04:17:21.337Z,983.87
2022-08-07T04:18:56.177Z,983.86
2022-08-07T04:19:14.761Z,983.85
2022-08-07T04:19:52.227Z,983.83
2022-08-07T04:20:54.418Z,983.81
2022-08-07T04:22:12.184Z,983.82
2022-08-07T04:22:53.113Z,983.86
2022-08-07T04:24:07.702Z,983.83
2022-08-07T04:24:45.457Z,983.81
2022-08-07T04:25:45.364Z,983.87
2022-08-07T04:27:06.262Z,983.87
2022-08-07T04:27:46.222Z,983.88
2022-08-07T04:29:06.127Z,983.85
2022-08-07T04:29:48.909Z,983.86
2022-08-07T04:30:57.409Z,983.86
2022-08-07T04:32:10.773Z,983.89
2022-08-07T04:32:47.951Z,983.92
2022-08-07T04:34:05.707Z,983.92
2022-08-07T04:34:44.658Z,983.94
2022-08-07T04:35:44.583Z,983.96
2022-08-07T04:37:08.127Z,984.02
2022-08-07T04:38:03.418Z,984.00
2022-08-07T04:39:05.374Z,983.97
2022-08-07T04:39:47.930Z,983.97
2022-08-07T04:40:51.435Z,984.00
2022-08-07T04:42:05.099Z,984.00
2022-08-07T04:42:44.009Z,984.00
2022-08-07T04:44:12.743Z,984.03
2022-08-07T04:44:54.592Z,984.06
2022-08-07T04:45:57.316Z,984.01
2022-08-07T04:47:08.653Z,984.02
2022-08-07T04:47:57.168Z,984.01
2022-08-07T04:49:07.557Z,984.06
2022-08-07T04:49:47.621Z,984.05
2022-08-07T04:50:43.395Z,984.06
2022-08-07T04:52:04.306Z,984.04
2022-08-07T04:52:51.180Z,984.04
2022-08-07T04:54:06.362Z,984.08
2022-08-07T04:54:43.058Z,984.07
2022-08-07T04:58:10.352Z,984.04
2022-08-07T04:58:10.523Z,984.01
2022-08-07T04:58:12.544Z,984.02
2022-08-07T05:00:07.734Z,984.06
2022-08-07T05:00:12.441Z,984.03
2022-08-07T05:00:42.637Z,984.00
2022-08-07T05:02:03.497Z,983.98
2022-08-07T05:02:43.452Z,984.01
2022-08-07T05:04:07.296Z,984.03
2022-08-07T05:04:47.076Z,984.00
2022-08-07T05:05:54.553Z,984.01
2022-08-07T05:07:09.578Z,984.02
2022-08-07T05:07:48.187Z,984.00
2022-08-07T05:09:02.936Z,984.00
2022-08-07T05:09:45.709Z,984.00
2022-08-07T05:10:41.820Z,984.01
2022-08-07T05:12:02.748Z,983.99
2022-08-07T05:12:51.338Z,984.03
2022-08-07T05:14:52.971Z,983.98
2022-08-07T05:14:54.052Z,984.00
2022-08-07T05:15:41.434Z,983.98
2022-08-07T05:17:02.340Z,983.98
2022-08-07T05:17:52.204Z,983.96
2022-08-07T05:19:02.158Z,983.96
2022-08-07T05:19:45.137Z,983.94
2022-08-07T05:20:41.025Z,983.96
2022-08-07T05:22:04.668Z,983.96
2022-08-07T05:22:40.851Z,983.95
2022-08-07T05:24:01.760Z,983.96
2022-08-07T05:24:40.860Z,983.92
2022-08-07T05:26:11.203Z,983.95
2022-08-07T05:27:01.519Z,983.98
2022-08-07T05:28:03.046Z,983.95
2022-08-07T05:29:04.276Z,983.97
2022-08-07T05:29:51.193Z,983.97
2022-08-07T05:30:40.246Z,983.95
2022-08-07T05:32:01.138Z,983.96
2022-08-07T05:32:40.063Z,983.96
2022-08-07T05:34:05.534Z,983.96
2022-08-07T05:34:39.929Z,983.99
2022-08-07T05:35:42.129Z,983.97
2022-08-07T05:37:00.731Z,984.00
2022-08-07T05:37:42.291Z,984.01
2022-08-07T05:40:05.793Z,983.99
2022-08-07T05:40:13.526Z,983.96
2022-08-07T05:40:42.791Z,983.97
2022-08-07T05:42:03.809Z,984.00
2022-08-07T05:42:39.375Z,983.98
2022-08-07T05:44:11.789Z,984.02
2022-08-07T05:44:46.373Z,984.00
2022-08-07T05:45:46.956Z,984.04
2022-08-07T05:47:01.044Z,984.01
2022-08-07T05:48:01.525Z,984.01
2022-08-07T05:48:59.908Z,983.98
2022-08-07T05:49:41.120Z,984.01
2022-08-07T05:50:39.340Z,984.00
2022-08-07T05:51:59.563Z,983.98
2022-08-07T05:52:38.506Z,984.00
2022-08-07T05:54:09.571Z,984.01
2022-08-07T05:54:44.334Z,984.00
2022-08-07T05:56:01.809Z,983.98
2022-08-07T05:56:59.180Z,984.04
2022-08-07T05:57:42.335Z,984.02
2022-08-07T05:58:58.999Z,984.05
2022-08-07T05:59:38.956Z,984.04
2022-08-07T06:00:37.982Z,984.07
2022-08-07T06:02:00.556Z,984.06
2022-08-07T06:02:37.758Z,984.03
2022-08-07T06:04:01.111Z,984.06
2022-08-07T06:04:37.548Z,984.07
2022-08-07T06:05:37.481Z,984.08
2022-08-07T06:07:03.667Z,984.07
2022-08-07T06:08:14.034Z,984.11
2022-08-07T06:08:58.296Z,984.07
2022-08-07T06:10:04.488Z,984.11
2022-08-07T06:10:37.094Z,984.09
2022-08-07T06:11:58.012Z,984.10
2022-08-07T06:12:36.932Z,984.09
2022-08-07T06:14:12.958Z,984.13
2022-08-07T06:14:36.784Z,984.10
2022-08-07T06:15:39.336Z,984.10
2022-08-07T06:16:58.501Z,984.09
2022-08-07T06:17:37.985Z,984.08
2022-08-07T06:18:57.432Z,984.06
2022-08-07T06:19:52.353Z,984.06
2022-08-07T06:20:49.913Z,984.06
2022-08-07T06:22:17.020Z,984.06
2022-08-07T06:22:40.090Z,984.06
2022-08-07T06:24:41.901Z,984.09
2022-08-07T06:24:46.053Z,984.08
2022-08-07T06:25:36.148Z,984.07
2022-08-07T06:26:56.815Z,984.04
2022-08-07T06:27:43.946Z,984.05
2022-08-07T06:28:56.656Z,984.06
2022-08-07T06:29:38.880Z,984.08
2022-08-07T06:30:38.093Z,984.06
2022-08-07T06:31:56.450Z,984.10
2022-08-07T06:32:35.386Z,984.08
2022-08-07T06:33:56.276Z,984.07
2022-08-07T06:34:35.208Z,984.08
2022-08-07T06:35:45.497Z,984.07
2022-08-07T06:36:56.034Z,984.05
2022-08-07T06:37:44.474Z,984.03
2022-08-07T06:38:58.993Z,984.03
2022-08-07T06:40:17.561Z,984.03
2022-08-07T06:40:35.185Z,984.01
2022-08-07T06:42:02.409Z,984.04
2022-08-07T06:42:35.213Z,984.04
2022-08-07T06:43:59.429Z,984.04
2022-08-07T06:44:36.679Z,984.04
2022-08-07T06:45:35.818Z,984.04
2022-08-07T06:47:09.866Z,984.02
2022-08-07T06:47:38.761Z,984.04
2022-08-07T06:48:55.101Z,984.07
2022-08-07T06:49:34.076Z,984.11
2022-08-07T06:50:36.098Z,984.08
2022-08-07T06:51:59.419Z,984.09
2022-08-07T06:52:35.931Z,984.10
2022-08-07T06:55:29.404Z,984.08
2022-08-07T06:55:33.474Z,984.10
2022-08-07T06:55:48.277Z,984.10
2022-08-07T06:56:54.486Z,984.07
2022-08-07T06:57:43.616Z,984.04
2022-08-07T07:00:11.473Z,984.06
2022-08-07T07:00:13.501Z,984.07
2022-08-07T07:00:33.198Z,984.10
2022-08-07T07:01:54.179Z,984.05
2022-08-07T07:02:53.586Z,984.04
2022-08-07T07:03:58.119Z,984.04
2022-08-07T07:04:34.037Z,984.06
2022-08-07T07:06:04.435Z,984.03
2022-08-07T07:07:00.033Z,984.02
2022-08-07T07:07:59.901Z,984.03
2022-08-07T07:08:53.571Z,984.03
2022-08-07T07:09:32.508Z,984.01
2022-08-07T07:10:32.420Z,984.03
2022-08-07T07:12:09.095Z,984.03
2022-08-07T07:12:33.643Z,984.03
2022-08-07T07:13:57.808Z,984.04
2022-08-07T07:14:32.123Z,984.02
2022-08-07T07:15:35.842Z,984.02
2022-08-07T07:16:53.492Z,984.03
2022-08-07T07:17:39.125Z,984.03
2022-08-07T07:18:52.813Z,984.03
2022-08-07T07:19:55.736Z,984.10
2022-08-07T07:20:31.694Z,984.05
2022-08-07T07:22:05.000Z,984.08
2022-08-07T07:22:34.480Z,984.08
2022-08-07T07:24:08.870Z,984.03
2022-08-07T07:24:32.064Z,984.07
2022-08-07T07:26:32.783Z,984.06
2022-08-07T07:26:52.559Z,984.04
2022-08-07T07:27:35.816Z,984.01
2022-08-07T07:29:40.717Z,984.02
2022-08-07T07:29:56.712Z,983.98
2022-08-07T07:30:38.098Z,983.96
2022-08-07T07:31:51.826Z,983.95
2022-08-07T07:32:30.745Z,983.93
2022-08-07T07:33:56.401Z,983.94
2022-08-07T07:34:31.921Z,983.94
2022-08-07T07:35:33.581Z,983.88
2022-08-07T07:36:53.919Z,983.89
2022-08-07T07:37:47.377Z,983.95
2022-08-07T07:38:51.270Z,983.95
2022-08-07T07:39:45.459Z,983.93
2022-08-07T07:40:30.145Z,983.88
2022-08-07T07:42:08.642Z,983.90
2022-08-07T07:42:32.476Z,983.90
2022-08-07T07:44:17.223Z,983.87
2022-08-07T07:44:29.839Z,983.82
2022-08-07T07:46:39.741Z,983.81
2022-08-07T07:46:57.200Z,983.83
2022-08-07T07:47:29.628Z,983.78
2022-08-07T07:48:50.557Z,983.77
2022-08-07T07:50:34.945Z,983.79
2022-08-07T07:50:39.002Z,983.77
2022-08-07T07:51:58.180Z,983.77
2022-08-07T07:52:29.482Z,983.76
2022-08-07T07:53:52.035Z,983.73
2022-08-07T07:54:29.093Z,983.74
2022-08-07T07:55:37.741Z,983.76
2022-08-07T07:56:49.928Z,983.73
2022-08-07T07:57:51.770Z,983.71
2022-08-07T07:58:50.630Z,983.72
2022-08-07T07:59:52.092Z,983.74
2022-08-07T08:00:29.569Z,983.70
2022-08-07T08:02:04.700Z,983.67
2022-08-07T08:02:34.133Z,983.65
2022-08-07T08:04:11.053Z,983.68
2022-08-07T08:04:28.405Z,983.66
2022-08-07T08:05:30.226Z,983.67
2022-08-07T08:06:50.646Z,983.67
2022-08-07T08:07:35.484Z,983.62
2022-08-07T08:08:49.014Z,983.62
2022-08-07T08:09:29.664Z,983.63
2022-08-07T08:10:37.680Z,983.62
2022-08-07T08:12:02.070Z,983.68
2022-08-07T08:12:51.605Z,983.67
2022-08-07T08:13:53.695Z,983.74
2022-08-07T08:14:27.613Z,983.69
2022-08-07T08:15:27.547Z,983.63
2022-08-07T08:16:50.674Z,983.71
2022-08-07T08:18:17.666Z,983.63
2022-08-07T08:18:50.330Z,983.63
2022-08-07T08:20:16.289Z,983.62
2022-08-07T08:20:31.835Z,983.62
2022-08-07T08:22:00.421Z,983.67
2022-08-07T08:22:32.565Z,983.64
2022-08-07T08:23:48.010Z,983.67
2022-08-07T08:24:36.652Z,983.69
2022-08-07T08:25:42.929Z,983.66
2022-08-07T08:26:50.471Z,983.69
2022-08-07T08:27:33.508Z,983.65
2022-08-07T08:28:47.545Z,983.66
2022-08-07T08:29:26.508Z,983.60
2022-08-07T08:30:26.445Z,983.64
2022-08-07T08:32:17.550Z,983.64
2022-08-07T08:32:38.596Z,983.66
2022-08-07T08:33:49.498Z,983.62
2022-08-07T08:34:27.219Z,983.64
2022-08-07T08:35:28.472Z,983.62
2022-08-07T08:36:47.005Z,983.60
2022-08-07T08:37:59.681Z,983.64
2022-08-07T08:38:46.846Z,983.63
2022-08-07T08:39:25.832Z,983.58
2022-08-07T08:40:28.593Z,983.60
2022-08-07T08:41:57.158Z,983.59
2022-08-07T08:42:25.868Z,983.55
2022-08-07T08:43:56.088Z,983.57
2022-08-07T08:44:29.721Z,983.60
2022-08-07T08:45:26.905Z,983.59
2022-08-07T08:46:46.242Z,983.58
2022-08-07T08:47:25.359Z,983.56
2022-08-07T08:48:46.127Z,983.54
2022-08-07T08:49:32.933Z,983.55
2022-08-07T08:50:28.272Z,983.57
2022-08-07T08:52:13.434Z,983.55
2022-08-07T08:52:24.833Z,983.55
2022-08-07T08:53:45.871Z,983.50
2022-08-07T08:54:24.711Z,983.52
2022-08-07T08:55:53.156Z,983.54
2022-08-07T08:56:47.197Z,983.56
2022-08-07T08:57:24.466Z,983.50
2022-08-07T08:58:45.408Z,983.45
2022-08-07T08:59:24.316Z,983.41
2022-08-07T09:00:24.501Z,983.40
2022-08-07T09:01:49.159Z,983.48
2022-08-07T09:02:34.622Z,983.51
2022-08-07T09:03:49.761Z,983.51
2022-08-07T09:04:25.855Z,983.50
2022-08-07T09:05:37.528Z,983.48
2022-08-07T09:06:47.941Z,983.47
2022-08-07T09:07:27.121Z,983.50
2022-08-07T09:08:46.878Z,983.47
2022-08-07T09:09:30.235Z,983.45
2022-08-07T09:10:23.555Z,983.43
2022-08-07T09:11:53.246Z,983.41
2022-08-07T09:12:31.741Z,983.38
2022-08-07T09:13:44.319Z,983.43
2022-08-07T09:14:23.253Z,983.43
2022-08-07T09:16:25.605Z,983.41
2022-08-07T09:16:44.116Z,983.42
2022-08-07T09:17:23.047Z,983.44
2022-08-07T09:18:52.909Z,983.45
2022-08-07T09:19:53.032Z,983.41
2022-08-07T09:20:35.402Z,983.37
2022-08-07T09:22:09.875Z,983.37
2022-08-07T09:24:28.473Z,983.34
2022-08-07T09:24:33.900Z,983.43
2022-08-07T09:24:54.518Z,983.36
2022-08-07T09:25:24.239Z,983.41
2022-08-07T09:26:47.501Z,983.43
2022-08-07T09:27:22.406Z,983.42
2022-08-07T09:30:04.319Z,983.46
2022-08-07T09:30:06.113Z,983.43
2022-08-07T09:30:28.131Z,983.38
2022-08-07T09:31:49.152Z,983.36
2022-08-07T09:32:21.974Z,983.38
2022-08-07T09:33:57.175Z,983.38
2022-08-07T09:34:21.851Z,983.42
2022-08-07T09:36:04.742Z,983.45
2022-08-07T09:36:43.117Z,983.42
2022-08-07T09:37:47.793Z,983.47
2022-08-07T09:38:42.545Z,983.44
2022-08-07T09:39:52.651Z,983.43
2022-08-07T09:40:21.415Z,983.37
2022-08-07T09:41:43.314Z,983.36
2022-08-07T09:42:22.968Z,983.33
2022-08-07T09:44:06.714Z,983.29
2022-08-07T09:44:32.747Z,983.33
2022-08-07T09:47:24.395Z,983.31
2022-08-07T09:47:55.116Z,983.31
2022-08-07T09:47:55.666Z,983.29
2022-08-07T09:48:55.866Z,983.28
2022-08-07T09:50:00.490Z,983.27
2022-08-07T09:50:20.715Z,983.33
2022-08-07T09:52:15.631Z,983.30
2022-08-07T09:52:34.359Z,983.26
2022-08-07T09:53:47.965Z,983.21
2022-08-07T09:54:20.426Z,983.24
2022-08-07T09:55:29.775Z,983.21
2022-08-07T09:56:41.983Z,983.21
2022-08-07T09:57:20.220Z,983.20
2022-08-07T09:58:42.452Z,983.15
2022-08-07T09:59:22.048Z,983.15
2022-08-07T10:00:20.024Z,983.19
2022-08-07T10:01:53.116Z,983.23
2022-08-07T10:02:19.885Z,983.20
2022-08-07T10:04:06.247Z,983.17
2022-08-07T10:04:28.069Z,983.21
2022-08-07T10:05:29.770Z,983.17
2022-08-07T10:06:40.585Z,983.11
2022-08-07T10:07:25.998Z,983.15
2022-08-07T10:08:40.444Z,983.17
2022-08-07T10:09:34.244Z,983.19
2022-08-07T10:10:21.404Z,983.15
2022-08-07T10:11:59.802Z,983.16
2022-08-07T10:12:21.941Z,983.18
2022-08-07T10:14:00.303Z,983.09
2022-08-07T10:14:23.053Z,983.07
2022-08-07T10:15:19.077Z,983.09
2022-08-07T10:16:39.878Z,983.05
2022-08-07T10:17:18.817Z,983.06
2022-08-07T10:18:39.735Z,982.99
2022-08-07T10:19:18.677Z,983.00
2022-08-07T10:20:22.156Z,983.05
2022-08-07T10:22:14.033Z,983.00
2022-08-07T10:22:18.468Z,983.00
2022-08-07T10:24:05.694Z,983.00
2022-08-07T10:24:21.387Z,983.04
2022-08-07T10:25:22.533Z,982.95
2022-08-07T10:26:39.196Z,982.91
2022-08-07T10:27:18.123Z,982.84
2022-08-07T10:28:39.051Z,982.92
2022-08-07T10:29:17.994Z,982.88
2022-08-07T10:30:17.906Z,982.90
2022-08-07T10:31:39.290Z,982.85
2022-08-07T10:32:36.855Z,982.82
2022-08-07T10:34:06.244Z,982.81
2022-08-07T10:34:18.450Z,982.83
2022-08-07T10:35:20.527Z,982.83
2022-08-07T10:36:38.494Z,982.85
2022-08-07T10:37:17.415Z,982.85
2022-08-07T10:38:48.374Z,982.85
2022-08-07T10:39:17.369Z,982.77
2022-08-07T10:40:17.268Z,982.76
2022-08-07T10:41:53.077Z,982.76
2022-08-07T10:42:21.270Z,982.77
2022-08-07T10:43:38.007Z,982.76
2022-08-07T10:44:16.942Z,982.74
2022-08-07T10:45:16.865Z,982.80
2022-08-07T10:46:37.802Z,982.79
2022-08-07T10:47:16.724Z,982.85
2022-08-07T10:48:37.677Z,982.77
2022-08-07T10:49:16.610Z,982.70
2022-08-07T10:50:16.529Z,982.70
2022-08-07T10:51:39.265Z,982.71
2022-08-07T10:52:16.410Z,982.71
2022-08-07T10:53:44.048Z,982.66
2022-08-07T10:54:16.256Z,982.65
2022-08-07T10:55:32.408Z,982.68
2022-08-07T10:56:37.114Z,982.66
2022-08-07T10:57:16.044Z,982.58
2022-08-07T10:58:40.363Z,982.62
2022-08-07T10:59:15.894Z,982.62
2022-08-07T11:00:39.189Z,982.61
2022-08-07T11:02:02.497Z,982.62
2022-08-07T11:02:32.795Z,982.58
2022-08-07T11:03:37.435Z,982.57
2022-08-07T11:04:31.455Z,982.61
2022-08-07T11:05:15.493Z,982.60
2022-08-07T11:06:36.418Z,982.59
2022-08-07T11:07:56.582Z,982.61
2022-08-07T11:08:36.297Z,982.53
2022-08-07T11:10:09.132Z,982.50
2022-08-07T11:10:15.159Z,982.45
2022-08-07T11:11:36.102Z,982.50
2022-08-07T11:12:15.039Z,982.48
2022-08-07T11:14:46.195Z,982.48
2022-08-07T11:14:46.401Z,982.50
2022-08-07T11:15:17.636Z,982.48
2022-08-07T11:16:35.749Z,982.45
2022-08-07T11:17:23.639Z,982.41
2022-08-07T11:18:35.593Z,982.35
2022-08-07T11:19:14.555Z,982.31
2022-08-07T11:20:14.585Z,982.29
2022-08-07T11:21:40.737Z,982.32
2022-08-07T11:22:27.437Z,982.33
2022-08-07T11:23:36.483Z,982.35
2022-08-07T11:24:14.205Z,982.29
2022-08-07T11:25:14.893Z,982.32
2022-08-07T11:26:35.060Z,982.24
2022-08-07T11:27:13.996Z,982.26
2022-08-07T11:28:34.909Z,982.29
2022-08-07T11:29:42.069Z,982.21
2022-08-07T11:30:18.346Z,982.21
2022-08-07T11:31:35.091Z,982.17
2022-08-07T11:32:13.662Z,982.27
2022-08-07T11:33:53.628Z,982.24
2022-08-07T11:34:16.315Z,982.21
2022-08-07T11:35:16.663Z,982.17
2022-08-07T11:36:34.398Z,982.16
2022-08-07T11:37:13.329Z,982.15
2022-08-07T11:38:34.228Z,982.09
2022-08-07T11:39:14.489Z,982.08
2022-08-07T11:40:19.114Z,982.08
2022-08-07T11:42:00.262Z,982.07
2022-08-07T11:42:18.619Z,982.12
2022-08-07T11:43:54.336Z,982.09
2022-08-07T11:44:14.297Z,982.08
2022-08-07T11:45:12.785Z,982.04
2022-08-07T11:46:33.704Z,982.06
2022-08-07T11:47:12.639Z,982.09
2022-08-07T11:48:33.567Z,982.06
2022-08-07T11:49:51.444Z,982.04
2022-08-07T11:50:32.391Z,982.00
2022-08-07T11:51:41.364Z,982.08
2022-08-07T11:52:12.293Z,982.03
2022-08-07T11:53:35.135Z,982.03
2022-08-07T11:54:12.175Z,982.02
2022-08-07T11:55:18.563Z,981.97
2022-08-07T11:56:33.021Z,982.03
2022-08-07T11:57:12.759Z,981.98
2022-08-07T11:58:33.416Z,981.97
2022-08-07T12:00:08.320Z,982.01
2022-08-07T12:00:19.524Z,981.97
2022-08-07T12:01:59.458Z,981.97
2022-08-07T12:02:20.717Z,981.98
2022-08-07T12:03:45.083Z,982.03
2022-08-07T12:04:11.487Z,982.02
2022-08-07T12:05:28.216Z,982.01
2022-08-07T12:06:40.020Z,981.95
2022-08-07T12:07:20.184Z,981.97
2022-08-07T12:08:34.797Z,981.96
2022-08-07T12:09:16.084Z,981.95
2022-08-07T12:10:12.574Z,981.97
2022-08-07T12:11:32.466Z,981.90
2022-08-07T12:12:12.028Z,981.96
2022-08-07T12:13:35.674Z,981.94
2022-08-07T12:14:10.826Z,982.02
2022-08-07T12:15:17.227Z,981.99
2022-08-07T12:16:31.675Z,981.97
2022-08-07T12:17:19.734Z,982.00
2022-08-07T12:18:31.545Z,981.94
2022-08-07T12:19:10.460Z,981.93
2022-08-07T12:20:20.927Z,981.97
2022-08-07T12:22:35.854Z,981.95
2022-08-07T12:22:37.700Z,981.92
2022-08-07T12:24:04.935Z,981.87
2022-08-07T12:24:38.196Z,981.86
2022-08-07T12:25:10.059Z,981.90
2022-08-07T12:26:35.457Z,981.85
2022-08-07T12:27:15.933Z,981.84